createdAt,value
2018-11-13T00:02:07.823Z,16.12
2018-11-13T00:04:38.846Z,16.14
2018-11-13T00:07:10.542Z,16.17
2018-11-13T00:09:43.469Z,16.16
2018-11-13T00:12:15.298Z,16.15
2018-11-13T00:14:47.017Z,16.16
2018-11-13T00:17:18.602Z,16.16
2018-11-13T00:19:50.243Z,16.14
2018-11-13T00:22:23.090Z,16.07
2018-11-13T00:24:55.054Z,15.97
2018-11-13T00:27:26.836Z,15.87
2018-11-13T00:29:59.809Z,15.77
2018-11-13T00:32:31.788Z,15.69
2018-11-13T00:35:03.663Z,15.60
2018-11-13T00:37:37.371Z,15.55
2018-11-13T00:40:10.962Z,15.52
2018-11-13T00:42:43.336Z,15.51
2018-11-13T00:45:14.891Z,15.52
2018-11-13T00:47:47.248Z,15.58
2018-11-13T00:50:20.179Z,15.62
2018-11-13T00:52:51.941Z,15.61
2018-11-13T00:55:23.847Z,15.58
2018-11-13T00:57:56.266Z,15.56
2018-11-13T01:00:27.879Z,15.56
2018-11-13T01:02:59.681Z,15.62
2018-11-13T01:05:31.417Z,15.69
2018-11-13T01:08:03.303Z,15.75
2018-11-13T01:10:34.697Z,15.75
2018-11-13T01:13:06.322Z,15.78
2018-11-13T01:15:38.580Z,15.83
2018-11-13T01:18:10.323Z,15.88
2018-11-13T01:20:42.581Z,15.90
2018-11-13T01:23:14.154Z,15.93
2018-11-13T01:25:47.124Z,15.95
2018-11-13T01:28:19.912Z,15.94
2018-11-13T01:30:51.552Z,15.93
2018-11-13T01:33:23.483Z,15.92
2018-11-13T01:35:54.881Z,15.96
2018-11-13T01:38:27.533Z,15.93
2018-11-13T01:40:59.549Z,15.91
2018-11-13T01:43:31.148Z,15.90
2018-11-13T01:46:03.575Z,15.91
2018-11-13T01:48:35.170Z,15.85
2018-11-13T01:51:06.655Z,15.74
2018-11-13T01:53:38.008Z,15.62
2018-11-13T01:56:09.823Z,15.57
2018-11-13T01:58:41.437Z,15.48
2018-11-13T02:01:13.591Z,15.47
2018-11-13T02:03:45.876Z,15.45
2018-11-13T02:06:17.556Z,15.36
2018-11-13T02:08:49.182Z,15.38
2018-11-13T02:11:21.175Z,15.44
2018-11-13T02:13:52.860Z,15.51
2018-11-13T02:16:25.594Z,15.59
2018-11-13T02:18:57.316Z,15.65
2018-11-13T02:21:29.254Z,15.70
2018-11-13T02:24:01.950Z,15.73
2018-11-13T02:26:34.546Z,15.76
2018-11-13T02:29:06.098Z,15.75
2018-11-13T02:31:38.173Z,15.77
2018-11-13T02:34:10.175Z,15.78
2018-11-13T02:36:41.962Z,15.76
2018-11-13T02:39:14.173Z,15.79
2018-11-13T02:41:45.893Z,15.80
2018-11-13T02:44:17.443Z,15.78
2018-11-13T02:46:49.366Z,15.76
2018-11-13T02:49:20.964Z,15.72
2018-11-13T02:51:52.934Z,15.70
2018-11-13T02:54:25.439Z,15.67
2018-11-13T02:56:56.915Z,15.65
2018-11-13T02:59:28.678Z,15.60
2018-11-13T03:02:00.809Z,15.58
2018-11-13T03:04:32.253Z,15.56
2018-11-13T03:07:04.116Z,15.55
2018-11-13T03:09:35.952Z,15.53
2018-11-13T03:12:08.013Z,15.53
2018-11-13T03:14:40.329Z,15.50
2018-11-13T03:17:12.961Z,15.49
2018-11-13T03:19:45.843Z,15.51
2018-11-13T03:22:17.135Z,15.55
2018-11-13T03:24:48.959Z,15.59
2018-11-13T03:27:20.911Z,15.59
2018-11-13T03:29:52.926Z,15.59
2018-11-13T03:32:24.411Z,15.64
2018-11-13T03:34:55.834Z,15.61
2018-11-13T03:37:27.748Z,15.61
2018-11-13T03:39:59.621Z,15.63
2018-11-13T03:42:31.362Z,15.57
2018-11-13T03:45:03.565Z,15.56
2018-11-13T03:47:35.922Z,14.96
2018-11-13T03:50:08.011Z,15.48
2018-11-13T03:52:40.036Z,15.45
2018-11-13T03:55:13.107Z,15.42
2018-11-13T03:57:45.826Z,15.38
2018-11-13T04:00:18.903Z,15.37
2018-11-13T04:02:50.778Z,15.37
2018-11-13T04:05:22.943Z,15.34
2018-11-13T04:07:55.606Z,15.34
2018-11-13T04:10:27.484Z,15.34
2018-11-13T04:13:00.925Z,15.37
2018-11-13T04:15:33.357Z,15.37
2018-11-13T04:18:05.024Z,15.29
2018-11-13T04:20:36.894Z,15.24
2018-11-13T04:23:08.569Z,15.21
2018-11-13T04:25:40.878Z,15.19
2018-11-13T04:28:12.541Z,15.14
2018-11-13T04:30:44.233Z,15.13
2018-11-13T04:33:15.976Z,15.15
2018-11-13T04:35:47.616Z,14.43
2018-11-13T04:38:19.394Z,15.06
2018-11-13T04:40:50.985Z,15.15
2018-11-13T04:43:23.055Z,15.11
2018-11-13T04:45:54.324Z,15.07
2018-11-13T04:48:26.628Z,15.09
2018-11-13T04:50:59.238Z,15.08
2018-11-13T04:53:30.674Z,15.01
2018-11-13T04:56:03.581Z,14.97
2018-11-13T04:58:35.001Z,14.84
2018-11-13T05:01:06.180Z,14.74
2018-11-13T05:03:37.488Z,14.67
2018-11-13T05:06:09.217Z,14.61
2018-11-13T05:08:40.747Z,14.54
2018-11-13T05:11:19.142Z,14.44
2018-11-13T05:13:51.359Z,14.45
2018-11-13T05:16:23.249Z,14.44
2018-11-13T05:18:54.958Z,14.42
2018-11-13T05:21:26.645Z,14.34
2018-11-13T05:23:58.727Z,14.30
2018-11-13T05:26:30.689Z,14.27
2018-11-13T05:29:02.540Z,13.72
2018-11-13T05:31:36.882Z,14.19
2018-11-13T05:34:09.156Z,14.19
2018-11-13T05:36:40.934Z,14.16
2018-11-13T05:39:13.450Z,14.19
2018-11-13T05:41:45.295Z,14.15
2018-11-13T05:44:18.190Z,14.16
2018-11-13T05:46:49.291Z,14.15
2018-11-13T05:49:21.814Z,14.11
2018-11-13T05:51:54.540Z,14.10
2018-11-13T05:54:26.719Z,14.07
2018-11-13T05:56:58.578Z,14.03
2018-11-13T05:59:30.489Z,14.00
2018-11-13T06:02:02.072Z,14.05
2018-11-13T06:04:34.958Z,14.05
2018-11-13T06:07:06.494Z,14.06
2018-11-13T06:09:38.302Z,14.05
2018-11-13T06:12:09.909Z,14.05
2018-11-13T06:14:43.402Z,14.05
2018-11-13T06:17:15.206Z,14.06
2018-11-13T06:19:46.922Z,14.07
2018-11-13T06:22:19.072Z,14.04
2018-11-13T06:24:50.741Z,14.06
2018-11-13T06:27:23.087Z,14.04
2018-11-13T06:29:55.126Z,14.04
2018-11-13T06:32:26.244Z,14.08
2018-11-13T06:34:57.631Z,14.07
2018-11-13T06:37:29.650Z,14.06
2018-11-13T06:40:03.178Z,14.09
2018-11-13T06:42:34.566Z,14.12
2018-11-13T06:45:06.402Z,14.14
2018-11-13T06:47:38.915Z,14.17
2018-11-13T06:50:11.452Z,14.16
2018-11-13T06:52:42.683Z,14.18
2018-11-13T06:55:19.041Z,14.17
2018-11-13T06:57:50.546Z,14.11
2018-11-13T07:00:22.153Z,14.08
2018-11-13T07:02:54.862Z,14.07
2018-11-13T07:05:26.355Z,14.03
2018-11-13T07:07:58.069Z,14.05
2018-11-13T07:10:31.006Z,14.06
2018-11-13T07:13:02.243Z,14.09
2018-11-13T07:15:35.115Z,13.52
2018-11-13T07:18:07.141Z,14.09
2018-11-13T07:20:38.259Z,14.04
2018-11-13T07:23:11.185Z,14.06
2018-11-13T07:25:42.694Z,14.05
2018-11-13T07:28:14.825Z,14.05
2018-11-13T07:30:45.781Z,14.06
2018-11-13T07:33:17.322Z,14.08
2018-11-13T07:35:48.346Z,14.09
2018-11-13T07:38:19.483Z,14.15
2018-11-13T07:40:50.540Z,14.17
2018-11-13T07:43:22.684Z,14.15
2018-11-13T07:45:54.295Z,14.19
2018-11-13T07:48:27.099Z,14.22
2018-11-13T07:50:59.370Z,14.21
2018-11-13T07:53:31.372Z,14.24
2018-11-13T07:56:02.727Z,14.27
2018-11-13T07:58:34.657Z,14.32
2018-11-13T08:01:06.413Z,14.32
2018-11-13T08:03:40.029Z,13.71
2018-11-13T08:06:11.770Z,14.25
2018-11-13T08:08:43.242Z,14.24
2018-11-13T08:11:14.299Z,14.28
2018-11-13T08:13:45.661Z,14.30
2018-11-13T08:16:16.782Z,14.35
2018-11-13T08:18:48.318Z,14.41
2018-11-13T08:21:20.510Z,14.44
2018-11-13T08:23:51.998Z,14.46
2018-11-13T08:26:24.139Z,14.46
2018-11-13T08:28:56.680Z,14.48
2018-11-13T08:31:27.627Z,14.49
2018-11-13T08:33:58.887Z,14.50
2018-11-13T08:36:31.514Z,14.54
2018-11-13T08:39:03.397Z,14.56
2018-11-13T08:41:35.422Z,14.57
2018-11-13T08:44:07.300Z,14.63
2018-11-13T08:46:38.403Z,14.68
2018-11-13T08:49:09.697Z,14.75
2018-11-13T08:51:41.450Z,14.80
2018-11-13T08:54:13.196Z,14.80
2018-11-13T08:56:45.233Z,14.88
2018-11-13T08:59:16.526Z,14.94
2018-11-13T09:01:48.104Z,14.90
2018-11-13T09:04:19.155Z,14.90
2018-11-13T09:06:50.190Z,14.88
2018-11-13T09:09:21.692Z,14.93
2018-11-13T09:11:52.943Z,14.96
2018-11-13T09:14:24.435Z,14.95
2018-11-13T09:16:56.738Z,14.95
2018-11-13T09:19:28.565Z,14.94
2018-11-13T09:22:01.570Z,14.89
2018-11-13T09:24:33.608Z,14.87
2018-11-13T09:27:05.036Z,14.86
2018-11-13T09:29:36.522Z,14.82
2018-11-13T09:32:07.900Z,14.69
2018-11-13T09:34:39.371Z,14.65
2018-11-13T09:37:10.997Z,14.63
2018-11-13T09:39:43.438Z,14.70
2018-11-13T09:42:14.999Z,14.79
2018-11-13T09:44:46.027Z,14.88
2018-11-13T09:47:17.882Z,14.46
2018-11-13T09:49:51.028Z,14.96
2018-11-13T09:52:24.415Z,14.96
2018-11-13T09:54:56.331Z,14.95
2018-11-13T09:57:27.941Z,14.89
2018-11-13T09:59:59.366Z,14.78
2018-11-13T10:02:31.815Z,14.67
2018-11-13T10:05:04.956Z,14.61
2018-11-13T10:07:36.901Z,14.46
2018-11-13T10:10:08.966Z,14.44
2018-11-13T10:12:40.380Z,14.56
2018-11-13T10:15:22.665Z,14.61
2018-11-13T10:17:53.755Z,14.67
2018-11-13T10:20:25.898Z,14.69
2018-11-13T10:22:58.899Z,14.77
2018-11-13T10:25:29.951Z,14.87
2018-11-13T10:28:02.909Z,14.92
2018-11-13T10:30:35.098Z,14.82
2018-11-13T10:33:06.458Z,14.77
2018-11-13T10:35:37.479Z,14.70
2018-11-13T10:38:08.705Z,14.72
2018-11-13T10:40:40.469Z,14.71
2018-11-13T10:43:11.894Z,14.73
2018-11-13T10:45:43.035Z,14.77
2018-11-13T10:48:15.931Z,14.80
2018-11-13T10:50:46.878Z,14.81
2018-11-13T10:53:18.179Z,14.94
2018-11-13T10:55:49.132Z,15.05
2018-11-13T10:58:20.324Z,15.07
2018-11-13T11:00:56.456Z,15.10
2018-11-13T11:03:32.382Z,15.11
2018-11-13T11:06:04.388Z,15.23
2018-11-13T11:08:35.537Z,15.30
2018-11-13T11:11:06.788Z,15.26
2018-11-13T11:13:38.760Z,15.27
2018-11-13T11:16:09.791Z,15.33
2018-11-13T11:18:42.062Z,15.56
2018-11-13T11:21:14.342Z,15.51
2018-11-13T11:23:45.967Z,15.34
2018-11-13T11:26:18.452Z,15.24
2018-11-13T11:28:49.474Z,14.98
2018-11-13T11:31:20.592Z,15.03
2018-11-13T11:33:52.670Z,14.95
2018-11-13T11:36:24.133Z,14.89
2018-11-13T11:38:55.731Z,14.37
2018-11-13T11:41:26.765Z,14.79
2018-11-13T11:43:58.363Z,14.80
2018-11-13T11:46:29.591Z,14.75
2018-11-13T11:49:02.036Z,14.84
2018-11-13T11:51:34.643Z,14.92
2018-11-13T11:54:07.267Z,15.00
2018-11-13T11:56:39.589Z,15.21
2018-11-13T11:59:11.118Z,15.40
2018-11-13T12:01:42.267Z,15.35
2018-11-13T12:04:13.279Z,15.32
2018-11-13T12:06:45.054Z,15.27
2018-11-13T12:09:17.302Z,15.14
2018-11-13T12:11:48.297Z,15.31
2018-11-13T12:14:19.642Z,15.41
2018-11-13T12:16:50.715Z,15.46
2018-11-13T12:19:22.368Z,15.58
2018-11-13T12:21:53.994Z,15.56
2018-11-13T12:24:25.075Z,15.68
2018-11-13T12:26:56.077Z,15.72
2018-11-13T12:29:27.656Z,15.78
2018-11-13T12:31:58.758Z,15.98
2018-11-13T12:34:30.446Z,16.29
2018-11-13T12:37:01.438Z,16.32
2018-11-13T12:39:32.906Z,16.37
2018-11-13T12:42:03.928Z,16.48
2018-11-13T12:44:34.929Z,16.57
2018-11-13T12:47:06.356Z,16.71
2018-11-13T12:49:37.742Z,16.79
2018-11-13T12:52:14.675Z,16.77
2018-11-13T12:54:46.718Z,16.88
2018-11-13T12:57:17.714Z,17.06
2018-11-13T12:59:49.273Z,16.72
2018-11-13T13:02:21.996Z,16.72
2018-11-13T13:04:53.095Z,16.64
2018-11-13T13:07:24.540Z,16.50
2018-11-13T13:09:55.523Z,16.24
2018-11-13T13:12:26.471Z,16.08
2018-11-13T13:14:57.854Z,16.03
2018-11-13T13:17:28.883Z,16.07
2018-11-13T13:20:00.449Z,15.91
2018-11-13T13:22:32.799Z,15.90
2018-11-13T13:25:03.920Z,15.90
2018-11-13T13:27:35.218Z,15.99
2018-11-13T13:30:09.231Z,16.02
2018-11-13T13:32:40.327Z,16.18
2018-11-13T13:35:50.965Z,16.13
2018-11-13T13:38:22.502Z,16.13
2018-11-13T13:40:54.852Z,16.13
2018-11-13T13:43:26.934Z,16.22
2018-11-13T13:45:58.928Z,16.32
2018-11-13T13:48:30.159Z,16.38
2018-11-13T13:51:01.145Z,16.40
2018-11-13T13:53:33.232Z,16.48
2018-11-13T13:56:05.149Z,16.07
2018-11-13T13:58:36.139Z,16.81
2018-11-13T14:01:08.723Z,16.94
2018-11-13T14:03:40.771Z,17.11
2018-11-13T14:06:12.637Z,16.97
2018-11-13T14:08:44.209Z,16.92
2018-11-13T14:11:15.747Z,16.79
2018-11-13T14:13:47.288Z,16.61
2018-11-13T14:16:18.399Z,16.39
2018-11-13T14:18:50.705Z,16.27
2018-11-13T14:21:22.239Z,15.97
2018-11-13T14:23:53.617Z,15.78
2018-11-13T14:26:25.203Z,15.59
2018-11-13T14:28:57.552Z,15.45
2018-11-13T14:31:29.692Z,15.31
2018-11-13T14:34:02.081Z,15.01
2018-11-13T14:36:35.425Z,14.90
2018-11-13T14:39:09.189Z,14.82
2018-11-13T14:41:41.731Z,14.80
2018-11-13T14:44:13.012Z,14.67
2018-11-13T14:46:44.058Z,14.60
2018-11-13T14:49:15.106Z,14.57
2018-11-13T14:51:46.602Z,14.54
2018-11-13T14:54:17.880Z,14.49
2018-11-13T14:56:48.816Z,13.39
2018-11-13T14:59:20.152Z,14.27
2018-11-13T15:01:51.995Z,14.20
2018-11-13T15:04:23.671Z,14.07
2018-11-13T15:06:56.244Z,14.02
2018-11-13T15:09:28.350Z,13.92
2018-11-13T15:12:00.445Z,13.83
2018-11-13T15:14:32.109Z,13.74
2018-11-13T15:17:04.136Z,13.64
2018-11-13T15:19:36.488Z,13.55
2018-11-13T15:22:08.162Z,13.43
2018-11-13T15:24:42.609Z,13.42
2018-11-13T15:27:14.833Z,13.34
2018-11-13T15:29:46.191Z,13.28
2018-11-13T15:32:17.513Z,13.25
2018-11-13T15:34:49.993Z,13.32
2018-11-13T15:37:21.995Z,13.41
2018-11-13T15:39:55.039Z,13.46
2018-11-13T15:42:27.488Z,13.42
2018-11-13T15:44:59.339Z,13.46
2018-11-13T15:47:30.791Z,13.48
2018-11-13T15:50:02.522Z,13.46
2018-11-13T15:52:34.456Z,13.49
2018-11-13T15:55:06.994Z,13.56
2018-11-13T15:57:38.635Z,13.62
2018-11-13T16:00:19.993Z,13.60
2018-11-13T16:02:51.067Z,13.58
2018-11-13T16:05:27.408Z,13.55
2018-11-13T16:08:00.261Z,13.44
2018-11-13T16:10:31.742Z,13.36
2018-11-13T16:13:03.778Z,13.26
2018-11-13T16:15:36.137Z,13.13
2018-11-13T16:18:10.089Z,12.98
2018-11-13T16:20:42.655Z,12.69
2018-11-13T16:23:14.308Z,12.64
2018-11-13T16:25:46.598Z,12.64
2018-11-13T16:28:19.338Z,12.59
2018-11-13T16:30:51.218Z,12.53
2018-11-13T16:33:22.752Z,12.47
2018-11-13T16:35:55.057Z,12.43
2018-11-13T16:38:27.665Z,12.37
2018-11-13T16:40:59.558Z,12.34
2018-11-13T16:43:30.877Z,12.33
2018-11-13T16:46:03.120Z,11.00
2018-11-13T16:48:34.526Z,12.20
2018-11-13T16:51:06.535Z,12.13
2018-11-13T16:53:42.262Z,12.06
2018-11-13T16:56:15.293Z,12.03
2018-11-13T16:58:48.100Z,11.98
2018-11-13T17:01:20.579Z,11.97
2018-11-13T17:03:52.340Z,11.94
2018-11-13T17:06:24.274Z,11.89
2018-11-13T17:08:55.696Z,11.86
2018-11-13T17:11:28.721Z,11.82
2018-11-13T17:14:00.121Z,11.80
2018-11-13T17:16:31.300Z,11.81
2018-11-13T17:19:03.380Z,11.86
2018-11-13T17:21:35.659Z,11.89
2018-11-13T17:24:10.282Z,11.88
2018-11-13T17:26:42.525Z,11.85
2018-11-13T17:29:16.895Z,11.83
2018-11-13T17:31:48.819Z,11.82
2018-11-13T17:34:21.462Z,11.77
2018-11-13T17:36:53.283Z,11.73
2018-11-13T17:39:24.432Z,11.69
2018-11-13T17:41:57.660Z,11.64
2018-11-13T17:44:32.367Z,11.59
2018-11-13T17:47:03.707Z,11.54
2018-11-13T17:49:35.121Z,11.45
2018-11-13T17:52:07.015Z,11.43
2018-11-13T17:54:38.687Z,11.38
2018-11-13T17:57:10.031Z,10.85
2018-11-13T17:59:41.507Z,11.33
2018-11-13T18:02:13.742Z,11.30
2018-11-13T18:04:45.245Z,11.22
2018-11-13T18:07:18.106Z,11.19
2018-11-13T18:09:53.279Z,11.14
2018-11-13T18:12:24.497Z,11.13
2018-11-13T18:14:56.886Z,11.11
2018-11-13T18:17:29.716Z,11.09
2018-11-13T18:20:02.583Z,11.08
2018-11-13T18:22:38.330Z,11.09
2018-11-13T18:25:09.807Z,11.05
2018-11-13T18:27:43.579Z,11.02
2018-11-13T18:30:19.333Z,11.08
2018-11-13T18:32:52.035Z,11.07
2018-11-13T18:35:27.442Z,11.03
2018-11-13T18:37:59.674Z,11.03
2018-11-13T18:40:33.202Z,10.42
2018-11-13T18:43:06.205Z,11.04
2018-11-13T18:45:39.821Z,11.01
2018-11-13T18:48:13.519Z,11.00
2018-11-13T18:50:46.912Z,11.01
2018-11-13T18:53:18.577Z,10.97
2018-11-13T18:55:51.587Z,10.95
2018-11-13T18:58:26.141Z,10.91
2018-11-13T19:00:59.745Z,10.89
2018-11-13T19:03:32.094Z,10.87
2018-11-13T19:06:06.782Z,10.87
2018-11-13T19:08:38.933Z,10.84
2018-11-13T19:11:11.302Z,10.85
2018-11-13T19:13:46.288Z,10.84
2018-11-13T19:16:18.480Z,10.84
2018-11-13T19:18:51.319Z,10.82
2018-11-13T19:21:23.587Z,10.75
2018-11-13T19:23:58.067Z,10.69
2018-11-13T19:26:30.541Z,10.66
2018-11-13T19:29:01.857Z,10.62
2018-11-13T19:31:33.826Z,10.67
2018-11-13T19:34:09.945Z,10.63
2018-11-13T19:36:41.649Z,10.64
2018-11-13T19:39:14.792Z,10.59
2018-11-13T19:41:49.126Z,10.57
2018-11-13T19:44:21.714Z,10.57
2018-11-13T19:46:54.991Z,10.53
2018-11-13T19:49:28.405Z,10.47
2018-11-13T19:52:00.032Z,10.48
2018-11-13T19:54:33.305Z,10.46
2018-11-13T19:57:05.627Z,10.49
2018-11-13T19:59:37.620Z,10.47
2018-11-13T20:02:14.184Z,10.45
2018-11-13T20:04:48.380Z,10.44
2018-11-13T20:07:22.100Z,10.44
2018-11-13T20:09:53.358Z,10.44
2018-11-13T20:12:31.540Z,10.40
2018-11-13T20:15:04.260Z,10.40
2018-11-13T20:17:37.229Z,10.37
2018-11-13T20:20:12.115Z,10.37
2018-11-13T20:22:50.062Z,10.35
2018-11-13T20:25:23.497Z,10.32
2018-11-13T20:27:58.103Z,10.32
2018-11-13T20:30:33.346Z,10.30
2018-11-13T20:33:08.081Z,10.32
2018-11-13T20:35:41.103Z,10.28
2018-11-13T20:38:14.308Z,10.26
2018-11-13T20:40:49.689Z,10.27
2018-11-13T20:43:24.110Z,10.22
2018-11-13T20:45:57.693Z,10.20
2018-11-13T20:48:30.379Z,10.21
2018-11-13T20:51:02.746Z,10.24
2018-11-13T20:53:35.746Z,10.25
2018-11-13T20:56:08.761Z,10.27
2018-11-13T20:58:41.699Z,10.25
2018-11-13T21:01:14.416Z,10.27
2018-11-13T21:03:47.393Z,10.20
2018-11-13T21:06:19.093Z,10.34
2018-11-13T21:08:51.422Z,10.33
2018-11-13T21:11:26.702Z,10.30
2018-11-13T21:13:59.251Z,10.33
2018-11-13T21:16:31.770Z,10.33
2018-11-13T21:19:05.337Z,10.21
2018-11-13T21:21:40.411Z,10.32
2018-11-13T21:24:13.406Z,10.30
2018-11-13T21:26:45.272Z,10.28
2018-11-13T21:29:16.391Z,10.27
2018-11-13T21:31:49.606Z,10.25
2018-11-13T21:34:23.420Z,10.16
2018-11-13T21:36:54.766Z,10.11
2018-11-13T21:39:26.638Z,10.12
2018-11-13T21:41:59.191Z,10.07
2018-11-13T21:44:31.130Z,10.05
2018-11-13T21:47:02.319Z,10.04
2018-11-13T21:49:35.753Z,10.02
2018-11-13T21:52:07.166Z,9.96
2018-11-13T21:54:38.514Z,9.95
2018-11-13T21:57:10.405Z,9.95
2018-11-13T21:59:42.499Z,9.94
2018-11-13T22:02:14.580Z,9.88
2018-11-13T22:04:48.146Z,9.84
2018-11-13T22:07:20.029Z,9.81
2018-11-13T22:09:51.110Z,9.81
2018-11-13T22:12:22.493Z,9.81
2018-11-13T22:14:54.970Z,9.79
2018-11-13T22:17:26.072Z,9.77
2018-11-13T22:19:59.690Z,9.72
2018-11-13T22:22:30.930Z,9.72
2018-11-13T22:25:02.107Z,9.70
2018-11-13T22:27:34.008Z,9.15
2018-11-13T22:30:06.951Z,9.66
2018-11-13T22:32:39.931Z,9.65
2018-11-13T22:35:12.541Z,9.63
2018-11-13T22:37:44.344Z,9.61
2018-11-13T22:40:24.072Z,9.61
2018-11-13T22:42:56.506Z,9.57
2018-11-13T22:45:29.201Z,9.58
2018-11-13T22:48:01.869Z,9.58
2018-11-13T22:50:34.032Z,9.59
2018-11-13T22:53:05.811Z,9.57
2018-11-13T22:55:37.527Z,9.56
2018-11-13T22:58:09.867Z,9.58
2018-11-13T23:00:49.667Z,9.60
2018-11-13T23:03:22.671Z,9.59
2018-11-13T23:05:54.597Z,9.59
2018-11-13T23:08:25.792Z,9.57
2018-11-13T23:10:58.033Z,9.56
2018-11-13T23:13:31.041Z,9.51
2018-11-13T23:16:03.345Z,9.48
2018-11-13T23:18:35.772Z,9.45
2018-11-13T23:21:08.791Z,9.40
2018-11-13T23:23:41.190Z,9.39
2018-11-13T23:26:13.447Z,9.27
2018-11-13T23:28:45.249Z,9.39
2018-11-13T23:31:16.546Z,8.75
2018-11-13T23:33:48.936Z,9.36
2018-11-13T23:36:20.603Z,9.36
2018-11-13T23:38:52.609Z,9.32
2018-11-13T23:41:24.807Z,9.33
2018-11-13T23:43:57.541Z,9.33
2018-11-13T23:46:30.252Z,9.34
2018-11-13T23:49:01.788Z,9.28
2018-11-13T23:51:33.660Z,9.25
2018-11-13T23:54:08.683Z,9.24
2018-11-13T23:56:40.032Z,9.20
2018-11-13T23:59:11.560Z,9.20
